sensor_id;sensor_type;location;lat;lon;timestamp;temperature;humidity
15107;DHT22;7654;45.308;-75.096;2024-02-15T00:00:28;-6.30;99.90
15107;DHT22;7654;45.308;-75.096;2024-02-15T00:02:59;-6.30;99.90
15107;DHT22;7654;45.308;-75.096;2024-02-15T00:05:29;-6.40;99.90
15107;DHT22;7654;45.308;-75.096;2024-02-15T00:07:59;-6.50;99.90
15107;DHT22;7654;45.308;-75.096;2024-02-15T00:10:31;-6.50;99.90
15107;DHT22;7654;45.308;-75.096;2024-02-15T00:13:03;-6.60;99.90
15107;DHT22;7654;45.308;-75.096;2024-02-15T00:15:34;-6.60;99.90
15107;DHT22;7654;45.308;-75.096;2024-02-15T00:18:05;-6.70;99.90
15107;DHT22;7654;45.308;-75.096;2024-02-15T00:20:35;-6.70;99.90
15107;DHT22;7654;45.308;-75.096;2024-02-15T00:23:07;-6.70;99.90
15107;DHT22;7654;45.308;-75.096;2024-02-15T00:25:39;-6.60;99.90
15107;DHT22;7654;45.308;-75.096;2024-02-15T00:28:13;-6.60;99.90
15107;DHT22;7654;45.308;-75.096;2024-02-15T00:30:43;-6.60;99.90
15107;DHT22;7654;45.308;-75.096;2024-02-15T00:33:14;-6.50;99.90
15107;DHT22;7654;45.308;-75.096;2024-02-15T00:35:45;-6.60;99.90
15107;DHT22;7654;45.308;-75.096;2024-02-15T00:38:18;-6.60;99.90
15107;DHT22;7654;45.308;-75.096;2024-02-15T00:40:50;-6.70;99.90
15107;DHT22;7654;45.308;-75.096;2024-02-15T00:43:21;-6.70;99.90
15107;DHT22;7654;45.308;-75.096;2024-02-15T00:45:52;-6.70;99.90
15107;DHT22;7654;45.308;-75.096;2024-02-15T00:48:22;-6.80;99.90
15107;DHT22;7654;45.308;-75.096;2024-02-15T00:50:57;-6.80;99.90
15107;DHT22;7654;45.308;-75.096;2024-02-15T00:53:27;-6.70;99.90
15107;DHT22;7654;45.308;-75.096;2024-02-15T00:55:59;-6.70;99.90
15107;DHT22;7654;45.308;-75.096;2024-02-15T00:58:30;-6.70;99.90
15107;DHT22;7654;45.308;-75.096;2024-02-15T01:01:01;-6.90;99.90
15107;DHT22;7654;45.308;-75.096;2024-02-15T01:03:31;-7.00;99.90
15107;DHT22;7654;45.308;-75.096;2024-02-15T01:06:03;-7.00;99.90
15107;DHT22;7654;45.308;-75.096;2024-02-15T01:08:35;-7.10;99.90
15107;DHT22;7654;45.308;-75.096;2024-02-15T01:11:07;-7.10;99.90
15107;DHT22;7654;45.308;-75.096;2024-02-15T01:13:38;-7.10;99.90
15107;DHT22;7654;45.308;-75.096;2024-02-15T01:16:09;-7.10;99.90
15107;DHT22;7654;45.308;-75.096;2024-02-15T01:18:39;-7.10;99.90
15107;DHT22;7654;45.308;-75.096;2024-02-15T01:21:10;-7.00;99.90
15107;DHT22;7654;45.308;-75.096;2024-02-15T01:23:41;-7.10;99.90
15107;DHT22;7654;45.308;-75.096;2024-02-15T01:26:14;-7.00;99.90
15107;DHT22;7654;45.308;-75.096;2024-02-15T01:28:46;-7.10;99.90
15107;DHT22;7654;45.308;-75.096;2024-02-15T01:31:17;-7.10;99.90
15107;DHT22;7654;45.308;-75.096;2024-02-15T01:33:49;-7.00;99.90
15107;DHT22;7654;45.308;-75.096;2024-02-15T01:36:19;-7.00;99.90
15107;DHT22;7654;45.308;-75.096;2024-02-15T01:38:50;-6.90;99.90
15107;DHT22;7654;45.308;-75.096;2024-02-15T01:41:22;-6.90;99.90
15107;DHT22;7654;45.308;-75.096;2024-02-15T01:43:53;-6.80;99.90
15107;DHT22;7654;45.308;-75.096;2024-02-15T01:46:25;-6.80;99.90
15107;DHT22;7654;45.308;-75.096;2024-02-15T01:48:56;-6.70;99.90
15107;DHT22;7654;45.308;-75.096;2024-02-15T01:51:28;-6.70;99.90
15107;DHT22;7654;45.308;-75.096;2024-02-15T01:54:00;-6.60;99.90
15107;DHT22;7654;45.308;-75.096;2024-02-15T01:56:34;-6.60;99.90
15107;DHT22;7654;45.308;-75.096;2024-02-15T01:59:08;-6.60;99.90
15107;DHT22;7654;45.308;-75.096;2024-02-15T02:01:39;-6.60;99.90
15107;DHT22;7654;45.308;-75.096;2024-02-15T02:04:10;-6.70;99.90
15107;DHT22;7654;45.308;-75.096;2024-02-15T02:06:41;-6.70;99.90
15107;DHT22;7654;45.308;-75.096;2024-02-15T02:09:11;-6.70;99.90
15107;DHT22;7654;45.308;-75.096;2024-02-15T02:11:45;-6.80;99.90
15107;DHT22;7654;45.308;-75.096;2024-02-15T02:14:17;-6.80;99.90
15107;DHT22;7654;45.308;-75.096;2024-02-15T02:16:49;-6.70;99.90
15107;DHT22;7654;45.308;-75.096;2024-02-15T02:19:20;-6.60;99.90
15107;DHT22;7654;45.308;-75.096;2024-02-15T02:21:52;-6.70;99.90
15107;DHT22;7654;45.308;-75.096;2024-02-15T02:24:25;-6.70;99.90
15107;DHT22;7654;45.308;-75.096;2024-02-15T02:26:57;-6.60;99.90
15107;DHT22;7654;45.308;-75.096;2024-02-15T02:29:28;-6.60;99.90
15107;DHT22;7654;45.308;-75.096;2024-02-15T02:32:02;-6.60;99.90
15107;DHT22;7654;45.308;-75.096;2024-02-15T02:34:33;-6.50;99.90
15107;DHT22;7654;45.308;-75.096;2024-02-15T02:37:05;-6.50;99.90
15107;DHT22;7654;45.308;-75.096;2024-02-15T02:39:36;-6.40;99.90
15107;DHT22;7654;45.308;-75.096;2024-02-15T02:42:08;-6.40;99.90
15107;DHT22;7654;45.308;-75.096;2024-02-15T02:44:39;-6.40;99.90
15107;DHT22;7654;45.308;-75.096;2024-02-15T02:47:09;-6.50;99.90
15107;DHT22;7654;45.308;-75.096;2024-02-15T02:49:40;-6.50;99.90
15107;DHT22;7654;45.308;-75.096;2024-02-15T02:52:11;-6.60;99.90
15107;DHT22;7654;45.308;-75.096;2024-02-15T02:54:41;-6.60;99.90
15107;DHT22;7654;45.308;-75.096;2024-02-15T02:57:13;-6.60;99.90
15107;DHT22;7654;45.308;-75.096;2024-02-15T02:59:44;-6.60;99.90
15107;DHT22;7654;45.308;-75.096;2024-02-15T03:02:15;-6.70;99.90
15107;DHT22;7654;45.308;-75.096;2024-02-15T03:04:46;-6.70;99.90
15107;DHT22;7654;45.308;-75.096;2024-02-15T03:07:17;-6.70;99.90
15107;DHT22;7654;45.308;-75.096;2024-02-15T03:09:47;-6.70;99.90
15107;DHT22;7654;45.308;-75.096;2024-02-15T03:12:19;-6.70;99.90
15107;DHT22;7654;45.308;-75.096;2024-02-15T03:14:52;-6.70;99.90
15107;DHT22;7654;45.308;-75.096;2024-02-15T03:17:24;-6.70;99.90
15107;DHT22;7654;45.308;-75.096;2024-02-15T03:19:54;-6.70;99.90
15107;DHT22;7654;45.308;-75.096;2024-02-15T03:22:25;-6.70;99.90
15107;DHT22;7654;45.308;-75.096;2024-02-15T03:24:57;-6.70;99.90
15107;DHT22;7654;45.308;-75.096;2024-02-15T03:27:29;-6.70;99.90
15107;DHT22;7654;45.308;-75.096;2024-02-15T03:30:00;-6.70;99.90
15107;DHT22;7654;45.308;-75.096;2024-02-15T03:32:31;-6.80;99.90
15107;DHT22;7654;45.308;-75.096;2024-02-15T03:35:01;-6.70;99.90
15107;DHT22;7654;45.308;-75.096;2024-02-15T03:37:32;-6.70;99.90
15107;DHT22;7654;45.308;-75.096;2024-02-15T03:40:06;-6.70;99.90
15107;DHT22;7654;45.308;-75.096;2024-02-15T03:42:39;-6.80;99.90
15107;DHT22;7654;45.308;-75.096;2024-02-15T03:45:10;-6.80;99.90
15107;DHT22;7654;45.308;-75.096;2024-02-15T03:47:41;-6.80;99.90
15107;DHT22;7654;45.308;-75.096;2024-02-15T03:50:12;-6.90;99.90
15107;DHT22;7654;45.308;-75.096;2024-02-15T03:52:49;-6.90;99.90
15107;DHT22;7654;45.308;-75.096;2024-02-15T03:55:20;-7.00;99.90
15107;DHT22;7654;45.308;-75.096;2024-02-15T03:57:55;-7.00;99.90
15107;DHT22;7654;45.308;-75.096;2024-02-15T04:00:26;-7.10;99.90
15107;DHT22;7654;45.308;-75.096;2024-02-15T04:02:56;-7.10;99.90
15107;DHT22;7654;45.308;-75.096;2024-02-15T04:05:29;-7.30;99.90
15107;DHT22;7654;45.308;-75.096;2024-02-15T04:08:03;-7.40;99.90
15107;DHT22;7654;45.308;-75.096;2024-02-15T04:10:34;-7.50;99.90
15107;DHT22;7654;45.308;-75.096;2024-02-15T04:13:06;-7.50;99.90
15107;DHT22;7654;45.308;-75.096;2024-02-15T04:15:36;-7.40;99.90
15107;DHT22;7654;45.308;-75.096;2024-02-15T04:18:06;-7.40;99.90
15107;DHT22;7654;45.308;-75.096;2024-02-15T04:20:37;-7.50;99.90
15107;DHT22;7654;45.308;-75.096;2024-02-15T04:23:07;-7.60;99.90
15107;DHT22;7654;45.308;-75.096;2024-02-15T04:25:38;-7.60;99.90
15107;DHT22;7654;45.308;-75.096;2024-02-15T04:28:10;-7.60;99.90
15107;DHT22;7654;45.308;-75.096;2024-02-15T04:30:41;-7.70;99.90
15107;DHT22;7654;45.308;-75.096;2024-02-15T04:33:11;-7.70;99.90
15107;DHT22;7654;45.308;-75.096;2024-02-15T04:35:43;-7.70;99.90
15107;DHT22;7654;45.308;-75.096;2024-02-15T04:38:14;-7.80;99.90
15107;DHT22;7654;45.308;-75.096;2024-02-15T04:40:47;-7.90;99.90
15107;DHT22;7654;45.308;-75.096;2024-02-15T04:43:19;-7.90;99.90
15107;DHT22;7654;45.308;-75.096;2024-02-15T04:45:52;-8.00;99.90
15107;DHT22;7654;45.308;-75.096;2024-02-15T04:48:23;-8.10;99.90
15107;DHT22;7654;45.308;-75.096;2024-02-15T04:50:53;-8.20;99.90
15107;DHT22;7654;45.308;-75.096;2024-02-15T04:53:27;-8.20;99.90
15107;DHT22;7654;45.308;-75.096;2024-02-15T04:55:59;-8.20;99.90
15107;DHT22;7654;45.308;-75.096;2024-02-15T04:58:33;-8.20;99.90
15107;DHT22;7654;45.308;-75.096;2024-02-15T05:01:04;-8.10;99.90
15107;DHT22;7654;45.308;-75.096;2024-02-15T05:03:35;-8.20;99.90
15107;DHT22;7654;45.308;-75.096;2024-02-15T05:06:06;-8.10;99.90
15107;DHT22;7654;45.308;-75.096;2024-02-15T05:08:37;-8.10;99.90
15107;DHT22;7654;45.308;-75.096;2024-02-15T05:11:11;-8.10;99.90
15107;DHT22;7654;45.308;-75.096;2024-02-15T05:13:48;-8.00;99.90
15107;DHT22;7654;45.308;-75.096;2024-02-15T05:16:19;-8.00;99.90
15107;DHT22;7654;45.308;-75.096;2024-02-15T05:18:49;-7.90;99.90
15107;DHT22;7654;45.308;-75.096;2024-02-15T05:21:19;-8.00;99.90
15107;DHT22;7654;45.308;-75.096;2024-02-15T05:23:50;-8.20;99.90
15107;DHT22;7654;45.308;-75.096;2024-02-15T05:26:20;-8.30;99.90
15107;DHT22;7654;45.308;-75.096;2024-02-15T05:28:53;-8.40;99.90
15107;DHT22;7654;45.308;-75.096;2024-02-15T05:31:24;-8.50;99.90
15107;DHT22;7654;45.308;-75.096;2024-02-15T05:33:55;-8.60;99.90
15107;DHT22;7654;45.308;-75.096;2024-02-15T05:36:26;-8.60;99.90
15107;DHT22;7654;45.308;-75.096;2024-02-15T05:38:58;-8.70;99.90
15107;DHT22;7654;45.308;-75.096;2024-02-15T05:41:31;-8.70;99.90
15107;DHT22;7654;45.308;-75.096;2024-02-15T05:44:05;-8.70;99.90
15107;DHT22;7654;45.308;-75.096;2024-02-15T05:46:36;-8.80;99.90
15107;DHT22;7654;45.308;-75.096;2024-02-15T05:49:08;-8.90;99.90
15107;DHT22;7654;45.308;-75.096;2024-02-15T05:51:43;-8.90;99.90
15107;DHT22;7654;45.308;-75.096;2024-02-15T05:54:16;-8.90;99.90
15107;DHT22;7654;45.308;-75.096;2024-02-15T05:56:47;-8.90;99.90
15107;DHT22;7654;45.308;-75.096;2024-02-15T05:59:22;-8.90;99.90
15107;DHT22;7654;45.308;-75.096;2024-02-15T06:01:52;-8.90;99.90
15107;DHT22;7654;45.308;-75.096;2024-02-15T06:04:23;-8.90;99.90
15107;DHT22;7654;45.308;-75.096;2024-02-15T06:06:54;-8.90;99.90
15107;DHT22;7654;45.308;-75.096;2024-02-15T06:09:29;-9.10;99.90
15107;DHT22;7654;45.308;-75.096;2024-02-15T06:12:01;-9.10;99.90
15107;DHT22;7654;45.308;-75.096;2024-02-15T06:14:35;-9.20;99.90
15107;DHT22;7654;45.308;-75.096;2024-02-15T06:17:05;-9.20;99.90
15107;DHT22;7654;45.308;-75.096;2024-02-15T06:19:37;-9.20;99.90
15107;DHT22;7654;45.308;-75.096;2024-02-15T06:22:07;-9.30;99.90
15107;DHT22;7654;45.308;-75.096;2024-02-15T06:24:38;-9.30;99.90
15107;DHT22;7654;45.308;-75.096;2024-02-15T06:27:10;-9.30;99.90
15107;DHT22;7654;45.308;-75.096;2024-02-15T06:29:43;-9.50;99.90
15107;DHT22;7654;45.308;-75.096;2024-02-15T06:32:32;-9.60;99.90
15107;DHT22;7654;45.308;-75.096;2024-02-15T06:35:21;-9.80;99.90
15107;DHT22;7654;45.308;-75.096;2024-02-15T06:38:08;-10.00;99.90
15107;DHT22;7654;45.308;-75.096;2024-02-15T06:40:56;-10.20;99.90
15107;DHT22;7654;45.308;-75.096;2024-02-15T06:43:26;-10.30;99.90
15107;DHT22;7654;45.308;-75.096;2024-02-15T06:45:59;-10.40;99.90
15107;DHT22;7654;45.308;-75.096;2024-02-15T06:48:29;-10.30;99.90
15107;DHT22;7654;45.308;-75.096;2024-02-15T06:51:00;-10.40;99.90
15107;DHT22;7654;45.308;-75.096;2024-02-15T06:53:31;-10.30;99.90
15107;DHT22;7654;45.308;-75.096;2024-02-15T06:56:02;-10.30;99.90
15107;DHT22;7654;45.308;-75.096;2024-02-15T06:58:33;-10.30;99.90
15107;DHT22;7654;45.308;-75.096;2024-02-15T07:01:06;-10.30;99.90
15107;DHT22;7654;45.308;-75.096;2024-02-15T07:03:37;-10.30;99.90
15107;DHT22;7654;45.308;-75.096;2024-02-15T07:06:07;-10.50;99.90
15107;DHT22;7654;45.308;-75.096;2024-02-15T07:08:38;-10.60;99.90
15107;DHT22;7654;45.308;-75.096;2024-02-15T07:11:08;-10.80;99.90
15107;DHT22;7654;45.308;-75.096;2024-02-15T07:13:39;-10.90;99.90
15107;DHT22;7654;45.308;-75.096;2024-02-15T07:16:11;-11.00;99.90
15107;DHT22;7654;45.308;-75.096;2024-02-15T07:18:44;-10.90;99.90
15107;DHT22;7654;45.308;-75.096;2024-02-15T07:21:14;-10.60;99.90
15107;DHT22;7654;45.308;-75.096;2024-02-15T07:23:45;-10.40;99.90
15107;DHT22;7654;45.308;-75.096;2024-02-15T07:26:15;-10.30;99.90
15107;DHT22;7654;45.308;-75.096;2024-02-15T07:28:48;-10.30;99.90
15107;DHT22;7654;45.308;-75.096;2024-02-15T07:31:22;-10.40;99.90
15107;DHT22;7654;45.308;-75.096;2024-02-15T07:33:53;-10.50;99.90
15107;DHT22;7654;45.308;-75.096;2024-02-15T07:36:24;-10.60;99.90
15107;DHT22;7654;45.308;-75.096;2024-02-15T07:38:55;-10.70;99.90
15107;DHT22;7654;45.308;-75.096;2024-02-15T07:41:30;-10.90;99.90
15107;DHT22;7654;45.308;-75.096;2024-02-15T07:44:01;-11.00;99.90
15107;DHT22;7654;45.308;-75.096;2024-02-15T07:46:34;-11.20;99.90
15107;DHT22;7654;45.308;-75.096;2024-02-15T07:49:06;-11.50;99.90
15107;DHT22;7654;45.308;-75.096;2024-02-15T07:51:36;-11.70;99.90
15107;DHT22;7654;45.308;-75.096;2024-02-15T07:54:07;-11.80;99.90
15107;DHT22;7654;45.308;-75.096;2024-02-15T07:56:37;-11.90;99.90
15107;DHT22;7654;45.308;-75.096;2024-02-15T07:59:08;-11.80;99.90
15107;DHT22;7654;45.308;-75.096;2024-02-15T08:01:42;-11.80;99.90
15107;DHT22;7654;45.308;-75.096;2024-02-15T08:04:15;-11.70;99.90
15107;DHT22;7654;45.308;-75.096;2024-02-15T08:06:46;-11.60;99.90
15107;DHT22;7654;45.308;-75.096;2024-02-15T08:09:17;-11.60;99.90
15107;DHT22;7654;45.308;-75.096;2024-02-15T08:11:50;-11.70;99.90
15107;DHT22;7654;45.308;-75.096;2024-02-15T08:14:20;-11.70;99.90
15107;DHT22;7654;45.308;-75.096;2024-02-15T08:16:52;-11.80;99.90
15107;DHT22;7654;45.308;-75.096;2024-02-15T08:19:23;-11.80;99.90
15107;DHT22;7654;45.308;-75.096;2024-02-15T08:21:57;-11.80;99.90
15107;DHT22;7654;45.308;-75.096;2024-02-15T08:24:27;-11.70;99.90
15107;DHT22;7654;45.308;-75.096;2024-02-15T08:26:58;-11.60;99.90
15107;DHT22;7654;45.308;-75.096;2024-02-15T08:29:28;-11.40;99.90
15107;DHT22;7654;45.308;-75.096;2024-02-15T08:32:00;-11.10;99.90
15107;DHT22;7654;45.308;-75.096;2024-02-15T08:34:33;-11.00;99.90
15107;DHT22;7654;45.308;-75.096;2024-02-15T08:37:03;-11.00;99.90
15107;DHT22;7654;45.308;-75.096;2024-02-15T08:39:35;-11.20;99.90
15107;DHT22;7654;45.308;-75.096;2024-02-15T08:42:06;-11.30;99.90
15107;DHT22;7654;45.308;-75.096;2024-02-15T08:44:36;-11.40;99.90
15107;DHT22;7654;45.308;-75.096;2024-02-15T08:47:08;-11.40;99.90
15107;DHT22;7654;45.308;-75.096;2024-02-15T08:49:38;-11.50;99.90
15107;DHT22;7654;45.308;-75.096;2024-02-15T08:52:09;-11.60;99.90
15107;DHT22;7654;45.308;-75.096;2024-02-15T08:54:40;-11.80;99.90
15107;DHT22;7654;45.308;-75.096;2024-02-15T08:57:10;-11.90;99.90
15107;DHT22;7654;45.308;-75.096;2024-02-15T08:59:41;-12.00;99.90
15107;DHT22;7654;45.308;-75.096;2024-02-15T09:02:13;-12.10;99.90
15107;DHT22;7654;45.308;-75.096;2024-02-15T09:04:44;-12.20;99.90
15107;DHT22;7654;45.308;-75.096;2024-02-15T09:07:14;-12.30;99.90
15107;DHT22;7654;45.308;-75.096;2024-02-15T09:09:45;-12.20;99.90
15107;DHT22;7654;45.308;-75.096;2024-02-15T09:12:16;-12.10;99.90
15107;DHT22;7654;45.308;-75.096;2024-02-15T09:14:46;-12.10;99.90
15107;DHT22;7654;45.308;-75.096;2024-02-15T09:17:18;-12.10;99.90
15107;DHT22;7654;45.308;-75.096;2024-02-15T09:19:48;-12.20;99.90
15107;DHT22;7654;45.308;-75.096;2024-02-15T09:22:19;-12.30;99.90
15107;DHT22;7654;45.308;-75.096;2024-02-15T09:24:49;-12.40;99.90
15107;DHT22;7654;45.308;-75.096;2024-02-15T09:27:20;-12.40;99.90
15107;DHT22;7654;45.308;-75.096;2024-02-15T09:29:50;-12.40;99.90
15107;DHT22;7654;45.308;-75.096;2024-02-15T09:32:22;-12.40;99.90
15107;DHT22;7654;45.308;-75.096;2024-02-15T09:34:53;-12.30;99.90
15107;DHT22;7654;45.308;-75.096;2024-02-15T09:37:24;-12.20;99.90
15107;DHT22;7654;45.308;-75.096;2024-02-15T09:39:56;-12.00;99.90
15107;DHT22;7654;45.308;-75.096;2024-02-15T09:42:27;-11.90;99.90
15107;DHT22;7654;45.308;-75.096;2024-02-15T09:44:57;-11.80;99.90
15107;DHT22;7654;45.308;-75.096;2024-02-15T09:47:35;-11.90;99.90
15107;DHT22;7654;45.308;-75.096;2024-02-15T09:50:07;-11.90;99.90
15107;DHT22;7654;45.308;-75.096;2024-02-15T09:52:40;-11.90;99.90
15107;DHT22;7654;45.308;-75.096;2024-02-15T09:55:11;-12.00;99.90
15107;DHT22;7654;45.308;-75.096;2024-02-15T09:57:43;-11.90;99.90
15107;DHT22;7654;45.308;-75.096;2024-02-15T10:00:15;-11.70;99.90
15107;DHT22;7654;45.308;-75.096;2024-02-15T10:02:49;-11.60;99.90
15107;DHT22;7654;45.308;-75.096;2024-02-15T10:05:21;-11.50;99.90
15107;DHT22;7654;45.308;-75.096;2024-02-15T10:07:52;-11.30;99.90
15107;DHT22;7654;45.308;-75.096;2024-02-15T10:10:23;-11.40;99.90
15107;DHT22;7654;45.308;-75.096;2024-02-15T10:12:54;-11.40;99.90
15107;DHT22;7654;45.308;-75.096;2024-02-15T10:15:29;-11.50;99.90
15107;DHT22;7654;45.308;-75.096;2024-02-15T10:18:04;-11.60;99.90
15107;DHT22;7654;45.308;-75.096;2024-02-15T10:20:37;-11.70;99.90
15107;DHT22;7654;45.308;-75.096;2024-02-15T10:23:13;-11.80;99.90
15107;DHT22;7654;45.308;-75.096;2024-02-15T10:25:46;-11.90;99.90
15107;DHT22;7654;45.308;-75.096;2024-02-15T10:28:21;-12.10;99.90
15107;DHT22;7654;45.308;-75.096;2024-02-15T10:31:08;-12.30;99.90
15107;DHT22;7654;45.308;-75.096;2024-02-15T10:33:42;-12.50;99.90
15107;DHT22;7654;45.308;-75.096;2024-02-15T10:36:12;-12.50;99.90
15107;DHT22;7654;45.308;-75.096;2024-02-15T10:38:44;-12.50;99.90
15107;DHT22;7654;45.308;-75.096;2024-02-15T10:41:15;-12.50;99.90
15107;DHT22;7654;45.308;-75.096;2024-02-15T10:43:46;-12.50;99.90
15107;DHT22;7654;45.308;-75.096;2024-02-15T10:46:16;-12.40;99.90
15107;DHT22;7654;45.308;-75.096;2024-02-15T10:48:49;-12.20;99.90
15107;DHT22;7654;45.308;-75.096;2024-02-15T10:51:20;-12.10;99.90
15107;DHT22;7654;45.308;-75.096;2024-02-15T10:53:59;-11.90;99.90
15107;DHT22;7654;45.308;-75.096;2024-02-15T10:56:36;-11.80;99.90
15107;DHT22;7654;45.308;-75.096;2024-02-15T10:59:17;-11.80;99.90
15107;DHT22;7654;45.308;-75.096;2024-02-15T11:01:50;-11.90;99.90
15107;DHT22;7654;45.308;-75.096;2024-02-15T11:04:28;-12.00;99.90
15107;DHT22;7654;45.308;-75.096;2024-02-15T11:07:01;-12.20;99.90
15107;DHT22;7654;45.308;-75.096;2024-02-15T11:09:35;-12.30;99.90
15107;DHT22;7654;45.308;-75.096;2024-02-15T11:12:06;-12.50;99.90
15107;DHT22;7654;45.308;-75.096;2024-02-15T11:14:37;-12.60;99.90
15107;DHT22;7654;45.308;-75.096;2024-02-15T11:17:08;-12.80;99.90
15107;DHT22;7654;45.308;-75.096;2024-02-15T11:19:44;-12.90;99.90
15107;DHT22;7654;45.308;-75.096;2024-02-15T11:22:16;-12.90;99.90
15107;DHT22;7654;45.308;-75.096;2024-02-15T11:24:47;-12.90;99.90
15107;DHT22;7654;45.308;-75.096;2024-02-15T11:27:27;-12.80;99.90
15107;DHT22;7654;45.308;-75.096;2024-02-15T11:29:58;-12.70;99.90
15107;DHT22;7654;45.308;-75.096;2024-02-15T11:32:41;-12.50;99.90
15107;DHT22;7654;45.308;-75.096;2024-02-15T11:35:18;-12.20;99.90
15107;DHT22;7654;45.308;-75.096;2024-02-15T11:37:56;-12.10;99.90
15107;DHT22;7654;45.308;-75.096;2024-02-15T11:41:00;-12.00;99.90
15107;DHT22;7654;45.308;-75.096;2024-02-15T11:43:54;-12.20;99.90
15107;DHT22;7654;45.308;-75.096;2024-02-15T11:46:27;-12.20;99.90
15107;DHT22;7654;45.308;-75.096;2024-02-15T11:49:02;-12.30;99.90
15107;DHT22;7654;45.308;-75.096;2024-02-15T11:51:36;-12.20;99.90
15107;DHT22;7654;45.308;-75.096;2024-02-15T11:54:12;-12.30;99.90
15107;DHT22;7654;45.308;-75.096;2024-02-15T11:56:55;-12.30;99.90
15107;DHT22;7654;45.308;-75.096;2024-02-15T11:59:42;-12.40;99.90
15107;DHT22;7654;45.308;-75.096;2024-02-15T12:02:22;-12.60;99.90
15107;DHT22;7654;45.308;-75.096;2024-02-15T12:05:09;-12.50;99.90
15107;DHT22;7654;45.308;-75.096;2024-02-15T12:07:59;-12.30;99.90
15107;DHT22;7654;45.308;-75.096;2024-02-15T12:10:57;-12.20;99.90
15107;DHT22;7654;45.308;-75.096;2024-02-15T12:13:50;-12.00;99.90
15107;DHT22;7654;45.308;-75.096;2024-02-15T12:16:37;-12.00;99.90
15107;DHT22;7654;45.308;-75.096;2024-02-15T12:19:24;-11.90;99.90
15107;DHT22;7654;45.308;-75.096;2024-02-15T12:21:55;-11.90;99.90
15107;DHT22;7654;45.308;-75.096;2024-02-15T12:24:30;-12.00;99.90
15107;DHT22;7654;45.308;-75.096;2024-02-15T12:27:01;-11.80;99.90
15107;DHT22;7654;45.308;-75.096;2024-02-15T12:29:32;-11.80;99.90
15107;DHT22;7654;45.308;-75.096;2024-02-15T12:32:07;-11.70;99.90
15107;DHT22;7654;45.308;-75.096;2024-02-15T12:34:37;-11.60;99.90
15107;DHT22;7654;45.308;-75.096;2024-02-15T12:37:12;-11.60;99.90
15107;DHT22;7654;45.308;-75.096;2024-02-15T12:39:44;-11.60;99.90
15107;DHT22;7654;45.308;-75.096;2024-02-15T12:42:14;-11.60;99.90
15107;DHT22;7654;45.308;-75.096;2024-02-15T12:44:45;-11.50;99.90
15107;DHT22;7654;45.308;-75.096;2024-02-15T12:47:20;-11.50;99.90
15107;DHT22;7654;45.308;-75.096;2024-02-15T12:49:53;-11.40;99.90
15107;DHT22;7654;45.308;-75.096;2024-02-15T12:52:34;-11.30;99.90
15107;DHT22;7654;45.308;-75.096;2024-02-15T12:55:14;-11.40;99.90
15107;DHT22;7654;45.308;-75.096;2024-02-15T12:57:46;-11.40;99.90
15107;DHT22;7654;45.308;-75.096;2024-02-15T13:00:19;-11.30;99.90
15107;DHT22;7654;45.308;-75.096;2024-02-15T13:02:51;-11.30;99.90
15107;DHT22;7654;45.308;-75.096;2024-02-15T13:05:22;-11.20;99.90
15107;DHT22;7654;45.308;-75.096;2024-02-15T13:07:53;-11.10;99.90
15107;DHT22;7654;45.308;-75.096;2024-02-15T13:10:27;-11.10;99.90
15107;DHT22;7654;45.308;-75.096;2024-02-15T13:12:59;-11.00;99.90
15107;DHT22;7654;45.308;-75.096;2024-02-15T13:15:30;-11.00;99.90
15107;DHT22;7654;45.308;-75.096;2024-02-15T13:18:03;-10.90;99.90
15107;DHT22;7654;45.308;-75.096;2024-02-15T13:20:34;-10.80;99.90
15107;DHT22;7654;45.308;-75.096;2024-02-15T13:23:07;-10.50;99.90
15107;DHT22;7654;45.308;-75.096;2024-02-15T13:25:44;-10.40;99.90
15107;DHT22;7654;45.308;-75.096;2024-02-15T13:28:15;-10.30;99.90
15107;DHT22;7654;45.308;-75.096;2024-02-15T13:30:45;-10.10;99.90
15107;DHT22;7654;45.308;-75.096;2024-02-15T13:33:17;-10.00;99.90
15107;DHT22;7654;45.308;-75.096;2024-02-15T13:35:49;-9.80;99.90
15107;DHT22;7654;45.308;-75.096;2024-02-15T13:38:20;-9.70;99.90
15107;DHT22;7654;45.308;-75.096;2024-02-15T13:40:54;-9.60;99.90
15107;DHT22;7654;45.308;-75.096;2024-02-15T13:43:25;-9.60;99.90
15107;DHT22;7654;45.308;-75.096;2024-02-15T13:45:59;-9.60;99.90
15107;DHT22;7654;45.308;-75.096;2024-02-15T13:48:30;-9.40;99.90
15107;DHT22;7654;45.308;-75.096;2024-02-15T13:51:01;-9.40;99.90
15107;DHT22;7654;45.308;-75.096;2024-02-15T13:53:31;-9.40;99.90
15107;DHT22;7654;45.308;-75.096;2024-02-15T13:56:05;-9.30;99.90
15107;DHT22;7654;45.308;-75.096;2024-02-15T13:58:35;-9.20;99.90
15107;DHT22;7654;45.308;-75.096;2024-02-15T14:01:05;-9.00;99.90
15107;DHT22;7654;45.308;-75.096;2024-02-15T14:03:36;-9.00;99.90
15107;DHT22;7654;45.308;-75.096;2024-02-15T14:06:07;-8.90;99.90
15107;DHT22;7654;45.308;-75.096;2024-02-15T14:08:37;-8.80;99.90
15107;DHT22;7654;45.308;-75.096;2024-02-15T14:11:09;-8.60;99.90
15107;DHT22;7654;45.308;-75.096;2024-02-15T14:13:39;-8.50;99.90
15107;DHT22;7654;45.308;-75.096;2024-02-15T14:16:10;-8.40;99.90
15107;DHT22;7654;45.308;-75.096;2024-02-15T14:18:41;-8.30;99.90
15107;DHT22;7654;45.308;-75.096;2024-02-15T14:21:13;-8.20;99.90
15107;DHT22;7654;45.308;-75.096;2024-02-15T14:23:45;-8.10;99.90
15107;DHT22;7654;45.308;-75.096;2024-02-15T14:26:17;-8.00;99.90
15107;DHT22;7654;45.308;-75.096;2024-02-15T14:28:47;-7.90;99.90
15107;DHT22;7654;45.308;-75.096;2024-02-15T14:31:18;-7.80;99.90
15107;DHT22;7654;45.308;-75.096;2024-02-15T14:34:05;-7.70;99.90
15107;DHT22;7654;45.308;-75.096;2024-02-15T14:36:36;-7.70;99.90
15107;DHT22;7654;45.308;-75.096;2024-02-15T14:39:06;-7.60;99.90
15107;DHT22;7654;45.308;-75.096;2024-02-15T14:41:39;-7.60;99.90
15107;DHT22;7654;45.308;-75.096;2024-02-15T14:44:17;-7.40;99.90
15107;DHT22;7654;45.308;-75.096;2024-02-15T14:46:47;-7.30;99.90
15107;DHT22;7654;45.308;-75.096;2024-02-15T14:49:17;-7.20;99.90
15107;DHT22;7654;45.308;-75.096;2024-02-15T14:51:48;-7.10;99.90
15107;DHT22;7654;45.308;-75.096;2024-02-15T14:54:19;-7.00;99.90
15107;DHT22;7654;45.308;-75.096;2024-02-15T14:56:52;-6.90;99.90
15107;DHT22;7654;45.308;-75.096;2024-02-15T14:59:23;-6.90;99.90
15107;DHT22;7654;45.308;-75.096;2024-02-15T15:01:53;-6.70;99.90
15107;DHT22;7654;45.308;-75.096;2024-02-15T15:04:29;-6.60;99.90
15107;DHT22;7654;45.308;-75.096;2024-02-15T15:07:20;-6.30;99.90
15107;DHT22;7654;45.308;-75.096;2024-02-15T15:10:10;-6.10;99.90
15107;DHT22;7654;45.308;-75.096;2024-02-15T15:12:55;-5.90;99.90
15107;DHT22;7654;45.308;-75.096;2024-02-15T15:15:25;-5.60;99.90
15107;DHT22;7654;45.308;-75.096;2024-02-15T15:17:56;-5.40;99.90
15107;DHT22;7654;45.308;-75.096;2024-02-15T15:20:27;-5.20;99.90
15107;DHT22;7654;45.308;-75.096;2024-02-15T15:22:57;-5.00;99.90
15107;DHT22;7654;45.308;-75.096;2024-02-15T15:25:30;-4.90;99.90
15107;DHT22;7654;45.308;-75.096;2024-02-15T15:28:02;-4.70;99.90
15107;DHT22;7654;45.308;-75.096;2024-02-15T15:30:32;-4.50;99.90
15107;DHT22;7654;45.308;-75.096;2024-02-15T15:33:04;-4.50;99.90
15107;DHT22;7654;45.308;-75.096;2024-02-15T15:35:35;-4.40;99.90
15107;DHT22;7654;45.308;-75.096;2024-02-15T15:38:06;-4.20;99.90
15107;DHT22;7654;45.308;-75.096;2024-02-15T15:40:37;-4.20;99.90
15107;DHT22;7654;45.308;-75.096;2024-02-15T15:43:09;-4.10;99.90